sensor_id;sensor_type;location;lat;lon;timestamp;temperature;humidity
50989;DHT22;37008;52.210;21.112;2023-05-07T00:01:01;5.30;99.90
50989;DHT22;37008;52.210;21.112;2023-05-07T00:03:27;5.40;99.90
50989;DHT22;37008;52.210;21.112;2023-05-07T00:05:53;5.40;99.90
50989;DHT22;37008;52.210;21.112;2023-05-07T00:08:18;5.30;99.90
50989;DHT22;37008;52.210;21.112;2023-05-07T00:10:44;5.40;99.90
50989;DHT22;37008;52.210;21.112;2023-05-07T00:13:10;5.30;99.90
50989;DHT22;37008;52.210;21.112;2023-05-07T00:15:36;5.30;99.90
50989;DHT22;37008;52.210;21.112;2023-05-07T00:18:01;5.30;99.90
50989;DHT22;37008;52.210;21.112;2023-05-07T00:20:27;5.30;99.90
50989;DHT22;37008;52.210;21.112;2023-05-07T00:22:52;5.30;99.90
50989;DHT22;37008;52.210;21.112;2023-05-07T00:25:18;5.30;99.90
50989;DHT22;37008;52.210;21.112;2023-05-07T00:27:45;5.30;99.90
50989;DHT22;37008;52.210;21.112;2023-05-07T00:30:11;5.30;99.90
50989;DHT22;37008;52.210;21.112;2023-05-07T00:32:37;5.20;99.90
50989;DHT22;37008;52.210;21.112;2023-05-07T00:35:03;5.30;99.90
50989;DHT22;37008;52.210;21.112;2023-05-07T00:37:29;5.20;99.90
50989;DHT22;37008;52.210;21.112;2023-05-07T00:39:55;5.20;99.90
50989;DHT22;37008;52.210;21.112;2023-05-07T00:42:21;5.20;99.90
50989;DHT22;37008;52.210;21.112;2023-05-07T00:44:46;5.20;99.90
50989;DHT22;37008;52.210;21.112;2023-05-07T00:47:13;5.20;99.90
50989;DHT22;37008;52.210;21.112;2023-05-07T00:49:42;5.20;99.90
50989;DHT22;37008;52.210;21.112;2023-05-07T00:52:12;5.10;99.90
50989;DHT22;37008;52.210;21.112;2023-05-07T00:54:38;5.20;99.90
50989;DHT22;37008;52.210;21.112;2023-05-07T00:57:05;5.10;99.90
50989;DHT22;37008;52.210;21.112;2023-05-07T00:59:32;5.10;99.90
50989;DHT22;37008;52.210;21.112;2023-05-07T01:01:58;5.10;99.90
50989;DHT22;37008;52.210;21.112;2023-05-07T01:04:25;5.10;99.90
50989;DHT22;37008;52.210;21.112;2023-05-07T01:06:52;5.10;99.90
50989;DHT22;37008;52.210;21.112;2023-05-07T01:09:19;5.00;99.90
50989;DHT22;37008;52.210;21.112;2023-05-07T01:11:47;5.00;99.90
50989;DHT22;37008;52.210;21.112;2023-05-07T01:14:13;5.00;99.90
50989;DHT22;37008;52.210;21.112;2023-05-07T01:16:38;5.00;99.90
50989;DHT22;37008;52.210;21.112;2023-05-07T01:19:07;5.00;99.90
50989;DHT22;37008;52.210;21.112;2023-05-07T01:21:33;5.00;99.90
50989;DHT22;37008;52.210;21.112;2023-05-07T01:24:00;5.00;99.90
50989;DHT22;37008;52.210;21.112;2023-05-07T01:26:26;5.00;99.90
50989;DHT22;37008;52.210;21.112;2023-05-07T01:28:52;5.00;99.90
50989;DHT22;37008;52.210;21.112;2023-05-07T01:31:17;5.00;99.90
50989;DHT22;37008;52.210;21.112;2023-05-07T01:33:44;5.10;99.90
50989;DHT22;37008;52.210;21.112;2023-05-07T01:36:11;5.00;99.90
50989;DHT22;37008;52.210;21.112;2023-05-07T01:38:39;5.00;99.90
50989;DHT22;37008;52.210;21.112;2023-05-07T01:41:06;5.00;99.90
50989;DHT22;37008;52.210;21.112;2023-05-07T01:43:33;5.00;99.90
50989;DHT22;37008;52.210;21.112;2023-05-07T01:46:00;5.00;99.90
50989;DHT22;37008;52.210;21.112;2023-05-07T01:48:26;4.90;99.90
50989;DHT22;37008;52.210;21.112;2023-05-07T01:50:52;4.90;99.90
50989;DHT22;37008;52.210;21.112;2023-05-07T01:53:18;4.90;99.90
50989;DHT22;37008;52.210;21.112;2023-05-07T01:55:44;4.90;99.90
50989;DHT22;37008;52.210;21.112;2023-05-07T01:58:10;4.90;99.90
50989;DHT22;37008;52.210;21.112;2023-05-07T02:00:36;4.90;99.90
50989;DHT22;37008;52.210;21.112;2023-05-07T02:03:01;4.90;99.90
50989;DHT22;37008;52.210;21.112;2023-05-07T02:05:27;5.00;99.90
50989;DHT22;37008;52.210;21.112;2023-05-07T02:07:53;4.90;99.90
50989;DHT22;37008;52.210;21.112;2023-05-07T02:10:18;4.90;99.90
50989;DHT22;37008;52.210;21.112;2023-05-07T02:12:44;4.90;99.90
50989;DHT22;37008;52.210;21.112;2023-05-07T02:15:10;4.90;99.90
50989;DHT22;37008;52.210;21.112;2023-05-07T02:20:03;5.00;99.90
50989;DHT22;37008;52.210;21.112;2023-05-07T02:22:29;4.90;99.90
50989;DHT22;37008;52.210;21.112;2023-05-07T02:24:56;4.90;99.90
50989;DHT22;37008;52.210;21.112;2023-05-07T02:27:21;4.90;99.90
50989;DHT22;37008;52.210;21.112;2023-05-07T02:29:47;4.90;99.90
50989;DHT22;37008;52.210;21.112;2023-05-07T02:32:12;4.90;99.90
50989;DHT22;37008;52.210;21.112;2023-05-07T02:34:38;4.90;99.90
50989;DHT22;37008;52.210;21.112;2023-05-07T02:37:03;4.90;99.90
50989;DHT22;37008;52.210;21.112;2023-05-07T02:39:29;4.90;99.90
50989;DHT22;37008;52.210;21.112;2023-05-07T02:41:55;4.90;99.90
50989;DHT22;37008;52.210;21.112;2023-05-07T02:44:20;4.90;99.90
50989;DHT22;37008;52.210;21.112;2023-05-07T02:46:46;4.90;99.90
50989;DHT22;37008;52.210;21.112;2023-05-07T02:49:11;4.90;99.90
50989;DHT22;37008;52.210;21.112;2023-05-07T02:51:37;4.90;99.90
50989;DHT22;37008;52.210;21.112;2023-05-07T02:54:03;4.90;99.90
50989;DHT22;37008;52.210;21.112;2023-05-07T02:56:28;4.90;99.90
50989;DHT22;37008;52.210;21.112;2023-05-07T02:58:54;4.80;99.90
50989;DHT22;37008;52.210;21.112;2023-05-07T03:01:19;4.90;99.90
50989;DHT22;37008;52.210;21.112;2023-05-07T03:03:46;4.90;99.90
50989;DHT22;37008;52.210;21.112;2023-05-07T03:06:11;4.90;99.90
50989;DHT22;37008;52.210;21.112;2023-05-07T03:08:37;4.90;99.90
50989;DHT22;37008;52.210;21.112;2023-05-07T03:11:02;4.90;99.90
50989;DHT22;37008;52.210;21.112;2023-05-07T03:13:28;4.90;99.90
50989;DHT22;37008;52.210;21.112;2023-05-07T03:15:54;5.00;99.90
50989;DHT22;37008;52.210;21.112;2023-05-07T03:18:19;4.90;99.90
50989;DHT22;37008;52.210;21.112;2023-05-07T03:20:46;5.00;99.90
50989;DHT22;37008;52.210;21.112;2023-05-07T03:23:11;5.00;99.90
50989;DHT22;37008;52.210;21.112;2023-05-07T03:25:37;5.00;99.90
50989;DHT22;37008;52.210;21.112;2023-05-07T03:28:02;5.00;99.90
50989;DHT22;37008;52.210;21.112;2023-05-07T03:30:28;5.00;99.90
50989;DHT22;37008;52.210;21.112;2023-05-07T03:32:53;5.00;99.90
50989;DHT22;37008;52.210;21.112;2023-05-07T03:35:19;5.10;99.90
50989;DHT22;37008;52.210;21.112;2023-05-07T03:37:45;5.00;99.90
50989;DHT22;37008;52.210;21.112;2023-05-07T03:40:11;5.10;99.90
50989;DHT22;37008;52.210;21.112;2023-05-07T03:42:37;5.00;99.90
50989;DHT22;37008;52.210;21.112;2023-05-07T03:45:03;5.00;99.90
50989;DHT22;37008;52.210;21.112;2023-05-07T03:47:29;5.00;99.90
50989;DHT22;37008;52.210;21.112;2023-05-07T03:49:55;5.10;99.90
50989;DHT22;37008;52.210;21.112;2023-05-07T03:52:21;5.10;99.90
50989;DHT22;37008;52.210;21.112;2023-05-07T03:54:51;5.20;99.90
50989;DHT22;37008;52.210;21.112;2023-05-07T03:57:17;5.10;99.90
50989;DHT22;37008;52.210;21.112;2023-05-07T03:59:42;5.10;99.90
50989;DHT22;37008;52.210;21.112;2023-05-07T04:02:08;5.20;99.90
50989;DHT22;37008;52.210;21.112;2023-05-07T04:04:34;5.20;99.90
50989;DHT22;37008;52.210;21.112;2023-05-07T04:06:59;5.10;99.90
50989;DHT22;37008;52.210;21.112;2023-05-07T04:09:25;5.10;99.90
50989;DHT22;37008;52.210;21.112;2023-05-07T04:11:51;5.10;99.90
50989;DHT22;37008;52.210;21.112;2023-05-07T04:14:17;5.20;99.90
50989;DHT22;37008;52.210;21.112;2023-05-07T04:16:42;5.10;99.90
50989;DHT22;37008;52.210;21.112;2023-05-07T04:19:08;5.10;99.90
50989;DHT22;37008;52.210;21.112;2023-05-07T04:21:33;5.10;99.90
50989;DHT22;37008;52.210;21.112;2023-05-07T04:23:59;5.10;99.90
50989;DHT22;37008;52.210;21.112;2023-05-07T04:26:24;5.20;99.90
50989;DHT22;37008;52.210;21.112;2023-05-07T04:28:50;5.10;99.90
50989;DHT22;37008;52.210;21.112;2023-05-07T04:31:16;5.20;99.90
50989;DHT22;37008;52.210;21.112;2023-05-07T04:33:41;5.20;99.90
50989;DHT22;37008;52.210;21.112;2023-05-07T04:36:07;5.20;99.90
50989;DHT22;37008;52.210;21.112;2023-05-07T04:38:33;5.20;99.90
50989;DHT22;37008;52.210;21.112;2023-05-07T04:41:03;5.20;99.90
50989;DHT22;37008;52.210;21.112;2023-05-07T04:43:29;5.20;99.90
50989;DHT22;37008;52.210;21.112;2023-05-07T04:45:55;5.30;99.90
50989;DHT22;37008;52.210;21.112;2023-05-07T04:48:20;5.30;99.90
50989;DHT22;37008;52.210;21.112;2023-05-07T04:50:49;5.30;99.90
50989;DHT22;37008;52.210;21.112;2023-05-07T04:53:15;5.30;99.90
50989;DHT22;37008;52.210;21.112;2023-05-07T04:55:41;5.40;99.90
50989;DHT22;37008;52.210;21.112;2023-05-07T04:58:08;5.40;99.90
50989;DHT22;37008;52.210;21.112;2023-05-07T05:00:33;5.40;99.90
50989;DHT22;37008;52.210;21.112;2023-05-07T05:02:59;5.40;99.90
50989;DHT22;37008;52.210;21.112;2023-05-07T05:05:25;5.60;99.90
50989;DHT22;37008;52.210;21.112;2023-05-07T05:07:50;5.50;99.90
50989;DHT22;37008;52.210;21.112;2023-05-07T05:10:17;5.50;99.90
50989;DHT22;37008;52.210;21.112;2023-05-07T05:12:43;5.60;99.90
50989;DHT22;37008;52.210;21.112;2023-05-07T05:15:11;5.70;99.90
50989;DHT22;37008;52.210;21.112;2023-05-07T05:17:38;5.80;99.90
50989;DHT22;37008;52.210;21.112;2023-05-07T05:20:05;5.80;99.90
50989;DHT22;37008;52.210;21.112;2023-05-07T05:22:31;5.90;99.90
50989;DHT22;37008;52.210;21.112;2023-05-07T05:24:57;6.00;99.90
50989;DHT22;37008;52.210;21.112;2023-05-07T05:27:23;6.10;99.90
50989;DHT22;37008;52.210;21.112;2023-05-07T05:29:48;6.10;99.90
50989;DHT22;37008;52.210;21.112;2023-05-07T05:32:14;6.20;99.90
50989;DHT22;37008;52.210;21.112;2023-05-07T05:34:39;6.40;99.90
50989;DHT22;37008;52.210;21.112;2023-05-07T05:37:05;6.50;99.90
50989;DHT22;37008;52.210;21.112;2023-05-07T05:39:30;6.50;99.90
50989;DHT22;37008;52.210;21.112;2023-05-07T05:41:56;6.60;99.90
50989;DHT22;37008;52.210;21.112;2023-05-07T05:44:22;6.60;99.90
50989;DHT22;37008;52.210;21.112;2023-05-07T05:46:47;6.70;99.90
50989;DHT22;37008;52.210;21.112;2023-05-07T05:49:15;6.80;99.90
50989;DHT22;37008;52.210;21.112;2023-05-07T05:51:40;6.90;99.90
50989;DHT22;37008;52.210;21.112;2023-05-07T05:54:06;7.00;99.90
50989;DHT22;37008;52.210;21.112;2023-05-07T05:56:32;7.00;99.90
50989;DHT22;37008;52.210;21.112;2023-05-07T05:58:57;7.00;99.90
50989;DHT22;37008;52.210;21.112;2023-05-07T06:01:23;7.10;99.90
50989;DHT22;37008;52.210;21.112;2023-05-07T06:03:49;7.10;99.90
50989;DHT22;37008;52.210;21.112;2023-05-07T06:06:14;7.00;99.90
50989;DHT22;37008;52.210;21.112;2023-05-07T06:08:40;7.10;99.90
50989;DHT22;37008;52.210;21.112;2023-05-07T06:11:06;7.20;99.90
50989;DHT22;37008;52.210;21.112;2023-05-07T06:13:31;7.20;99.90
50989;DHT22;37008;52.210;21.112;2023-05-07T06:15:58;7.20;99.90
50989;DHT22;37008;52.210;21.112;2023-05-07T06:18:23;7.20;99.90
50989;DHT22;37008;52.210;21.112;2023-05-07T06:20:49;7.30;99.90
50989;DHT22;37008;52.210;21.112;2023-05-07T06:23:14;7.30;99.90
50989;DHT22;37008;52.210;21.112;2023-05-07T06:25:40;7.30;99.90
50989;DHT22;37008;52.210;21.112;2023-05-07T06:28:06;7.40;99.90
50989;DHT22;37008;52.210;21.112;2023-05-07T06:30:33;7.50;99.90
50989;DHT22;37008;52.210;21.112;2023-05-07T06:32:59;7.80;99.90
50989;DHT22;37008;52.210;21.112;2023-05-07T06:35:24;7.80;99.90
50989;DHT22;37008;52.210;21.112;2023-05-07T06:37:50;7.90;99.90
50989;DHT22;37008;52.210;21.112;2023-05-07T06:40:15;8.00;99.90
50989;DHT22;37008;52.210;21.112;2023-05-07T06:42:42;8.10;99.90
50989;DHT22;37008;52.210;21.112;2023-05-07T06:45:08;8.10;99.90
50989;DHT22;37008;52.210;21.112;2023-05-07T06:47:34;8.10;99.90
50989;DHT22;37008;52.210;21.112;2023-05-07T06:49:59;8.20;99.90
50989;DHT22;37008;52.210;21.112;2023-05-07T06:52:25;8.20;99.90
50989;DHT22;37008;52.210;21.112;2023-05-07T06:54:50;8.10;99.90
50989;DHT22;37008;52.210;21.112;2023-05-07T06:57:16;8.00;99.90
50989;DHT22;37008;52.210;21.112;2023-05-07T06:59:41;8.00;99.90
50989;DHT22;37008;52.210;21.112;2023-05-07T07:02:07;8.20;99.90
50989;DHT22;37008;52.210;21.112;2023-05-07T07:04:33;8.20;99.90
50989;DHT22;37008;52.210;21.112;2023-05-07T07:06:59;8.30;99.90
50989;DHT22;37008;52.210;21.112;2023-05-07T07:09:24;8.20;99.90
50989;DHT22;37008;52.210;21.112;2023-05-07T07:11:50;8.30;99.90
50989;DHT22;37008;52.210;21.112;2023-05-07T07:14:15;8.20;99.90
50989;DHT22;37008;52.210;21.112;2023-05-07T07:16:41;8.30;99.90
50989;DHT22;37008;52.210;21.112;2023-05-07T07:19:07;8.30;99.90
50989;DHT22;37008;52.210;21.112;2023-05-07T07:21:32;8.30;99.90
50989;DHT22;37008;52.210;21.112;2023-05-07T07:23:58;8.30;99.90
50989;DHT22;37008;52.210;21.112;2023-05-07T07:26:23;8.40;99.90
50989;DHT22;37008;52.210;21.112;2023-05-07T07:28:49;8.40;99.90
50989;DHT22;37008;52.210;21.112;2023-05-07T07:31:15;8.40;99.90
50989;DHT22;37008;52.210;21.112;2023-05-07T07:33:41;8.50;99.90
50989;DHT22;37008;52.210;21.112;2023-05-07T07:36:07;8.70;99.90
50989;DHT22;37008;52.210;21.112;2023-05-07T07:38:33;8.70;99.90
50989;DHT22;37008;52.210;21.112;2023-05-07T07:40:58;8.70;99.90
50989;DHT22;37008;52.210;21.112;2023-05-07T07:43:24;8.80;99.90
50989;DHT22;37008;52.210;21.112;2023-05-07T07:45:49;8.90;99.90
50989;DHT22;37008;52.210;21.112;2023-05-07T07:48:15;8.90;99.90
50989;DHT22;37008;52.210;21.112;2023-05-07T07:50:41;8.90;99.90
50989;DHT22;37008;52.210;21.112;2023-05-07T07:53:06;9.00;99.90
50989;DHT22;37008;52.210;21.112;2023-05-07T07:55:32;9.00;99.90
50989;DHT22;37008;52.210;21.112;2023-05-07T07:57:58;9.00;99.90
50989;DHT22;37008;52.210;21.112;2023-05-07T08:00:23;9.20;99.90
50989;DHT22;37008;52.210;21.112;2023-05-07T08:02:49;9.10;99.90
50989;DHT22;37008;52.210;21.112;2023-05-07T08:05:14;9.20;99.90
50989;DHT22;37008;52.210;21.112;2023-05-07T08:07:40;9.30;99.90
50989;DHT22;37008;52.210;21.112;2023-05-07T08:10:06;9.50;99.90
50989;DHT22;37008;52.210;21.112;2023-05-07T08:12:32;9.50;99.90
50989;DHT22;37008;52.210;21.112;2023-05-07T08:14:58;9.70;99.90
50989;DHT22;37008;52.210;21.112;2023-05-07T08:17:23;9.70;99.90
50989;DHT22;37008;52.210;21.112;2023-05-07T08:19:49;9.70;99.90
50989;DHT22;37008;52.210;21.112;2023-05-07T08:22:14;9.70;99.90
50989;DHT22;37008;52.210;21.112;2023-05-07T08:24:41;9.70;99.90
50989;DHT22;37008;52.210;21.112;2023-05-07T08:27:06;9.70;99.90
50989;DHT22;37008;52.210;21.112;2023-05-07T08:29:32;9.80;99.90
50989;DHT22;37008;52.210;21.112;2023-05-07T08:31:57;9.90;99.90
50989;DHT22;37008;52.210;21.112;2023-05-07T08:34:23;9.80;99.90
50989;DHT22;37008;52.210;21.112;2023-05-07T08:36:49;9.80;99.90
50989;DHT22;37008;52.210;21.112;2023-05-07T08:39:17;9.90;99.90
50989;DHT22;37008;52.210;21.112;2023-05-07T08:41:44;9.90;99.90
50989;DHT22;37008;52.210;21.112;2023-05-07T08:44:14;9.90;99.90
50989;DHT22;37008;52.210;21.112;2023-05-07T08:46:41;9.90;99.90
50989;DHT22;37008;52.210;21.112;2023-05-07T08:49:08;9.90;99.90
50989;DHT22;37008;52.210;21.112;2023-05-07T08:51:34;9.90;99.90
50989;DHT22;37008;52.210;21.112;2023-05-07T08:54:01;10.00;99.90
50989;DHT22;37008;52.210;21.112;2023-05-07T08:56:27;10.10;99.90
50989;DHT22;37008;52.210;21.112;2023-05-07T08:58:52;10.00;99.90
50989;DHT22;37008;52.210;21.112;2023-05-07T09:01:21;10.20;99.90
50989;DHT22;37008;52.210;21.112;2023-05-07T09:03:47;10.20;99.90
50989;DHT22;37008;52.210;21.112;2023-05-07T09:06:13;10.20;99.90
50989;DHT22;37008;52.210;21.112;2023-05-07T09:08:38;10.20;99.90
50989;DHT22;37008;52.210;21.112;2023-05-07T09:11:05;10.10;99.90
50989;DHT22;37008;52.210;21.112;2023-05-07T09:13:30;10.10;99.90
50989;DHT22;37008;52.210;21.112;2023-05-07T09:15:56;10.30;99.90
50989;DHT22;37008;52.210;21.112;2023-05-07T09:18:24;10.50;99.90
50989;DHT22;37008;52.210;21.112;2023-05-07T09:20:50;10.50;99.90
50989;DHT22;37008;52.210;21.112;2023-05-07T09:23:16;10.40;99.90
50989;DHT22;37008;52.210;21.112;2023-05-07T09:25:42;10.40;99.90
50989;DHT22;37008;52.210;21.112;2023-05-07T09:28:07;10.40;99.90
50989;DHT22;37008;52.210;21.112;2023-05-07T09:30:35;10.40;99.40
50989;DHT22;37008;52.210;21.112;2023-05-07T09:33:03;10.40;98.60
50989;DHT22;37008;52.210;21.112;2023-05-07T09:35:30;10.50;99.90
50989;DHT22;37008;52.210;21.112;2023-05-07T09:37:57;10.70;99.90
50989;DHT22;37008;52.210;21.112;2023-05-07T09:40:28;10.70;99.90
50989;DHT22;37008;52.210;21.112;2023-05-07T09:42:54;10.80;99.50
50989;DHT22;37008;52.210;21.112;2023-05-07T09:45:26;10.70;97.20
50989;DHT22;37008;52.210;21.112;2023-05-07T09:47:55;10.70;96.50
50989;DHT22;37008;52.210;21.112;2023-05-07T09:50:26;10.80;99.00
50989;DHT22;37008;52.210;21.112;2023-05-07T09:52:54;10.80;97.70
50989;DHT22;37008;52.210;21.112;2023-05-07T09:55:21;10.80;96.60
50989;DHT22;37008;52.210;21.112;2023-05-07T09:57:50;10.80;98.30
50989;DHT22;37008;52.210;21.112;2023-05-07T10:00:19;10.80;95.50
50989;DHT22;37008;52.210;21.112;2023-05-07T10:02:47;10.80;96.10
50989;DHT22;37008;52.210;21.112;2023-05-07T10:05:15;10.70;94.00
50989;DHT22;37008;52.210;21.112;2023-05-07T10:07:41;10.60;94.10
50989;DHT22;37008;52.210;21.112;2023-05-07T10:10:07;10.50;95.40
50989;DHT22;37008;52.210;21.112;2023-05-07T10:12:33;10.50;95.70
50989;DHT22;37008;52.210;21.112;2023-05-07T10:15:06;10.50;93.60
50989;DHT22;37008;52.210;21.112;2023-05-07T10:17:37;10.40;93.00
50989;DHT22;37008;52.210;21.112;2023-05-07T10:20:04;10.20;93.90
50989;DHT22;37008;52.210;21.112;2023-05-07T10:22:45;10.20;94.70
50989;DHT22;37008;52.210;21.112;2023-05-07T10:25:21;10.20;95.70
50989;DHT22;37008;52.210;21.112;2023-05-07T10:27:49;10.40;96.40
50989;DHT22;37008;52.210;21.112;2023-05-07T10:33:15;10.20;95.00
50989;DHT22;37008;52.210;21.112;2023-05-07T10:35:44;10.10;95.50
50989;DHT22;37008;52.210;21.112;2023-05-07T10:38:10;10.10;98.00
50989;DHT22;37008;52.210;21.112;2023-05-07T10:40:36;10.20;98.70
50989;DHT22;37008;52.210;21.112;2023-05-07T10:43:04;10.20;97.70
50989;DHT22;37008;52.210;21.112;2023-05-07T10:45:32;10.30;97.20
50989;DHT22;37008;52.210;21.112;2023-05-07T10:48:15;10.30;97.50
50989;DHT22;37008;52.210;21.112;2023-05-07T10:50:44;10.40;98.50
50989;DHT22;37008;52.210;21.112;2023-05-07T10:55:47;10.40;98.60
50989;DHT22;37008;52.210;21.112;2023-05-07T11:00:48;10.40;97.60
50989;DHT22;37008;52.210;21.112;2023-05-07T11:03:14;10.30;98.30
50989;DHT22;37008;52.210;21.112;2023-05-07T11:05:41;10.40;98.60
50989;DHT22;37008;52.210;21.112;2023-05-07T11:08:07;10.50;96.70
50989;DHT22;37008;52.210;21.112;2023-05-07T11:13:16;10.90;95.70
50989;DHT22;37008;52.210;21.112;2023-05-07T11:15:47;11.00;94.70
50989;DHT22;37008;52.210;21.112;2023-05-07T11:18:14;11.10;93.70
50989;DHT22;37008;52.210;21.112;2023-05-07T11:20:59;11.10;91.20
50989;DHT22;37008;52.210;21.112;2023-05-07T11:28:29;10.90;91.90
50989;DHT22;37008;52.210;21.112;2023-05-07T11:30:57;11.10;92.00
50989;DHT22;37008;52.210;21.112;2023-05-07T11:33:23;11.20;90.40
50989;DHT22;37008;52.210;21.112;2023-05-07T11:35:52;11.30;91.90
50989;DHT22;37008;52.210;21.112;2023-05-07T11:38:19;11.50;91.00
50989;DHT22;37008;52.210;21.112;2023-05-07T11:40:51;11.50;90.30
50989;DHT22;37008;52.210;21.112;2023-05-07T11:43:17;11.60;87.50
50989;DHT22;37008;52.210;21.112;2023-05-07T11:45:44;11.60;89.80
50989;DHT22;37008;52.210;21.112;2023-05-07T11:48:10;11.80;91.10
50989;DHT22;37008;52.210;21.112;2023-05-07T11:50:35;11.90;90.30
50989;DHT22;37008;52.210;21.112;2023-05-07T11:53:07;12.00;89.00
50989;DHT22;37008;52.210;21.112;2023-05-07T11:55:33;12.00;89.00
50989;DHT22;37008;52.210;21.112;2023-05-07T11:57:59;11.90;90.10
50989;DHT22;37008;52.210;21.112;2023-05-07T12:00:24;11.70;87.00
50989;DHT22;37008;52.210;21.112;2023-05-07T12:02:50;11.60;87.20
50989;DHT22;37008;52.210;21.112;2023-05-07T12:05:15;11.50;88.00
50989;DHT22;37008;52.210;21.112;2023-05-07T12:07:41;11.40;89.00
50989;DHT22;37008;52.210;21.112;2023-05-07T12:10:07;11.50;89.70
50989;DHT22;37008;52.210;21.112;2023-05-07T12:12:40;11.60;90.10
50989;DHT22;37008;52.210;21.112;2023-05-07T12:15:07;11.60;86.90
50989;DHT22;37008;52.210;21.112;2023-05-07T12:17:33;11.60;90.00
50989;DHT22;37008;52.210;21.112;2023-05-07T12:19:59;11.80;90.30
50989;DHT22;37008;52.210;21.112;2023-05-07T12:22:25;12.00;88.30
50989;DHT22;37008;52.210;21.112;2023-05-07T12:24:58;12.00;87.10
50989;DHT22;37008;52.210;21.112;2023-05-07T12:27:25;12.10;88.50
50989;DHT22;37008;52.210;21.112;2023-05-07T12:29:51;12.20;87.50
50989;DHT22;37008;52.210;21.112;2023-05-07T12:32:17;12.30;85.40
50989;DHT22;37008;52.210;21.112;2023-05-07T12:34:49;12.30;80.10
50989;DHT22;37008;52.210;21.112;2023-05-07T12:37:15;12.20;79.10
50989;DHT22;37008;52.210;21.112;2023-05-07T12:40:03;12.10;78.40
50989;DHT22;37008;52.210;21.112;2023-05-07T12:42:35;12.00;78.70
50989;DHT22;37008;52.210;21.112;2023-05-07T12:45:10;12.00;80.50
50989;DHT22;37008;52.210;21.112;2023-05-07T12:47:36;12.00;81.20
50989;DHT22;37008;52.210;21.112;2023-05-07T12:50:04;12.00;79.50
50989;DHT22;37008;52.210;21.112;2023-05-07T12:52:30;12.20;78.60
50989;DHT22;37008;52.210;21.112;2023-05-07T12:54:57;12.30;80.70
50989;DHT22;37008;52.210;21.112;2023-05-07T12:57:29;12.50;79.50
50989;DHT22;37008;52.210;21.112;2023-05-07T12:59:57;12.40;76.90
50989;DHT22;37008;52.210;21.112;2023-05-07T13:02:38;12.20;77.70
50989;DHT22;37008;52.210;21.112;2023-05-07T13:05:04;12.00;76.50
50989;DHT22;37008;52.210;21.112;2023-05-07T13:07:30;12.10;79.50
50989;DHT22;37008;52.210;21.112;2023-05-07T13:09:55;12.20;80.30
50989;DHT22;37008;52.210;21.112;2023-05-07T13:12:21;12.30;81.80
50989;DHT22;37008;52.210;21.112;2023-05-07T13:14:47;12.40;82.20
50989;DHT22;37008;52.210;21.112;2023-05-07T13:17:12;12.40;81.40
50989;DHT22;37008;52.210;21.112;2023-05-07T13:19:38;12.40;78.80
50989;DHT22;37008;52.210;21.112;2023-05-07T13:22:04;12.30;79.20
50989;DHT22;37008;52.210;21.112;2023-05-07T13:24:29;12.10;78.40
50989;DHT22;37008;52.210;21.112;2023-05-07T13:26:55;12.00;80.20
50989;DHT22;37008;52.210;21.112;2023-05-07T13:29:20;12.00;79.10
50989;DHT22;37008;52.210;21.112;2023-05-07T13:31:54;11.80;79.60
50989;DHT22;37008;52.210;21.112;2023-05-07T13:34:20;11.70;79.40
50989;DHT22;37008;52.210;21.112;2023-05-07T13:36:45;11.80;82.10
50989;DHT22;37008;52.210;21.112;2023-05-07T13:39:11;12.00;83.50
50989;DHT22;37008;52.210;21.112;2023-05-07T13:41:37;12.40;82.90
50989;DHT22;37008;52.210;21.112;2023-05-07T13:44:02;12.70;79.30
50989;DHT22;37008;52.210;21.112;2023-05-07T13:46:28;12.80;80.30
50989;DHT22;37008;52.210;21.112;2023-05-07T13:48:55;12.80;79.30
50989;DHT22;37008;52.210;21.112;2023-05-07T13:51:20;12.90;77.90
50989;DHT22;37008;52.210;21.112;2023-05-07T13:53:47;12.90;77.00
50989;DHT22;37008;52.210;21.112;2023-05-07T13:56:14;12.70;77.10
50989;DHT22;37008;52.210;21.112;2023-05-07T13:58:39;12.60;76.50
50989;DHT22;37008;52.210;21.112;2023-05-07T14:01:05;12.60;77.90
50989;DHT22;37008;52.210;21.112;2023-05-07T14:03:31;12.70;78.30
50989;DHT22;37008;52.210;21.112;2023-05-07T14:05:59;12.80;77.90
50989;DHT22;37008;52.210;21.112;2023-05-07T14:08:25;13.00;77.60
50989;DHT22;37008;52.210;21.112;2023-05-07T14:10:51;13.10;77.10
50989;DHT22;37008;52.210;21.112;2023-05-07T14:13:17;13.10;76.20
50989;DHT22;37008;52.210;21.112;2023-05-07T14:15:42;13.30;75.40
50989;DHT22;37008;52.210;21.112;2023-05-07T14:18:14;14.00;76.40
50989;DHT22;37008;52.210;21.112;2023-05-07T14:20:40;15.20;72.10
50989;DHT22;37008;52.210;21.112;2023-05-07T14:23:06;16.50;68.00
50989;DHT22;37008;52.210;21.112;2023-05-07T14:25:32;17.60;63.10
50989;DHT22;37008;52.210;21.112;2023-05-07T14:27:57;18.50;59.00
50989;DHT22;37008;52.210;21.112;2023-05-07T14:30:23;19.10;58.00
50989;DHT22;37008;52.210;21.112;2023-05-07T14:32:50;19.70;56.10
50989;DHT22;37008;52.210;21.112;2023-05-07T14:35:16;20.10;55.10
50989;DHT22;37008;52.210;21.112;2023-05-07T14:37:42;20.30;53.60
50989;DHT22;37008;52.210;21.112;2023-05-07T14:40:08;20.60;54.10
50989;DHT22;37008;52.210;21.112;2023-05-07T14:42:34;20.30;53.50
50989;DHT22;37008;52.210;21.112;2023-05-07T14:45:00;19.30;51.60
50989;DHT22;37008;52.210;21.112;2023-05-07T14:47:25;18.90;53.40
50989;DHT22;37008;52.210;21.112;2023-05-07T14:49:51;18.80;52.10
50989;DHT22;37008;52.210;21.112;2023-05-07T14:52:18;19.20;53.10
50989;DHT22;37008;52.210;21.112;2023-05-07T14:54:44;19.10;51.70
50989;DHT22;37008;52.210;21.112;2023-05-07T14:57:10;19.30;52.30
50989;DHT22;37008;52.210;21.112;2023-05-07T14:59:38;18.70;50.90
50989;DHT22;37008;52.210;21.112;2023-05-07T15:02:05;17.40;49.70
50989;DHT22;37008;52.210;21.112;2023-05-07T15:04:33;17.20;51.30
50989;DHT22;37008;52.210;21.112;2023-05-07T15:06:58;17.70;51.50
50989;DHT22;37008;52.210;21.112;2023-05-07T15:09:24;18.40;51.00
50989;DHT22;37008;52.210;21.112;2023-05-07T15:11:50;19.10;49.10
50989;DHT22;37008;52.210;21.112;2023-05-07T15:14:15;19.80;48.40
50989;DHT22;37008;52.210;21.112;2023-05-07T15:16:41;20.30;45.40
50989;DHT22;37008;52.210;21.112;2023-05-07T15:19:06;20.50;44.70
50989;DHT22;37008;52.210;21.112;2023-05-07T15:21:32;20.80;44.80
50989;DHT22;37008;52.210;21.112;2023-05-07T15:24:00;21.00;43.10
50989;DHT22;37008;52.210;21.112;2023-05-07T15:26:26;21.40;43.30
50989;DHT22;37008;52.210;21.112;2023-05-07T15:28:52;21.80;42.80
50989;DHT22;37008;52.210;21.112;2023-05-07T15:31:18;22.30;43.50
50989;DHT22;37008;52.210;21.112;2023-05-07T15:33:43;22.70;42.30
50989;DHT22;37008;52.210;21.112;2023-05-07T15:36:10;22.70;40.40
50989;DHT22;37008;52.210;21.112;2023-05-07T15:38:36;22.60;40.00